KALO

Waterloo Regional Airport

Waterloo, Iowa, USA
METAR KALO 231954Z VRB05KT 10SM CLR 11/M01 A3034 RMK AO2 SLP280 T01111006
Observed Flight Rules
Oct-23 @ 19:54 UTC (37 minutes ago) Visual Flight Rules
Wind Visibility Clouds
Variable at 5 knots 10 miles
  • Clear skies
Temperatures Readings
Current 11°C / 52°F
Dewpoint -1°C / 30°F
Humidity 44%
Altimeter 30.34" Hg
Pressure 1028 hPa
Elevation 264
METAR KALO 231954Z VRB05KT 10SM CLR 11/M01 A3034 RMK AO2 SLP280 T01111006
Observed Flight Rules
Oct-23 @ 19:54 UTC
(37 minutes ago)
VFR
Wind Visibility
Variable at 5 knots 10 miles
Clouds
  • Clear skies
Temperature Dewpoint
11°C / 52°F -1°C / 30°F
Humidity Altimeter Pressure
44% 30.34" Hg 1028 hPa